createdAt,value
2023-01-13T00:00:31.868Z,9.20
2023-01-13T00:02:59.880Z,10.67
2023-01-13T00:05:28.463Z,8.63
2023-01-13T00:07:56.386Z,11.53
2023-01-13T00:10:24.365Z,12.03
2023-01-13T00:12:53.614Z,13.73
2023-01-13T00:15:21.598Z,9.63
2023-01-13T00:17:50.964Z,7.90
2023-01-13T00:20:19.156Z,12.33
2023-01-13T00:22:47.054Z,19.63
2023-01-13T00:25:15.136Z,11.83
2023-01-13T00:27:42.925Z,11.27
2023-01-13T00:30:11.826Z,8.73
2023-01-13T00:32:39.819Z,8.23
2023-01-13T00:35:09.999Z,6.00
2023-01-13T00:37:38.953Z,9.85
2023-01-13T00:40:07.853Z,6.43
2023-01-13T00:42:52.991Z,10.03
2023-01-13T00:45:20.955Z,10.93
2023-01-13T00:47:48.825Z,10.67
2023-01-13T00:50:18.547Z,9.37
2023-01-13T00:52:46.470Z,12.93
2023-01-13T00:55:14.283Z,10.87
2023-01-13T00:57:42.238Z,6.93
2023-01-13T01:00:11.798Z,10.10
2023-01-13T01:02:39.615Z,8.63
2023-01-13T01:05:08.469Z,10.47
2023-01-13T01:07:37.823Z,10.57
2023-01-13T01:10:06.475Z,9.80
2023-01-13T01:12:36.004Z,6.17
2023-01-13T01:15:06.172Z,10.63
2023-01-13T01:17:34.076Z,7.13
2023-01-13T01:20:02.017Z,6.37
2023-01-13T01:22:30.031Z,8.23
2023-01-13T01:24:59.861Z,10.63
2023-01-13T01:27:27.805Z,3.85
2023-01-13T01:29:55.634Z,5.87
2023-01-13T01:32:23.540Z,6.87
2023-01-13T01:34:51.913Z,5.87
2023-01-13T01:37:19.706Z,6.50
2023-01-13T01:39:47.579Z,5.50
2023-01-13T01:42:36.246Z,3.90
2023-01-13T01:45:15.085Z,4.37
2023-01-13T01:47:44.115Z,8.23
2023-01-13T01:50:12.944Z,5.33
2023-01-13T01:52:44.284Z,7.87
2023-01-13T01:55:17.382Z,8.83
2023-01-13T01:57:51.443Z,6.47
2023-01-13T02:00:19.735Z,8.00
2023-01-13T02:02:50.823Z,12.10
2023-01-13T02:05:19.770Z,7.67
2023-01-13T02:07:50.216Z,7.30
2023-01-13T02:12:49.430Z,5.80
2023-01-13T02:15:19.716Z,9.90
2023-01-13T02:18:03.953Z,8.90
2023-01-13T02:21:15.406Z,10.23
2023-01-13T02:24:59.014Z,8.97
2023-01-13T02:27:52.110Z,8.03
2023-01-13T02:30:57.684Z,11.33
2023-01-13T02:33:40.523Z,13.53
2023-01-13T02:36:16.880Z,13.77
2023-01-13T02:38:52.017Z,9.60
2023-01-13T02:41:57.727Z,12.13
2023-01-13T02:44:29.860Z,9.00
2023-01-13T02:47:05.099Z,10.73
2023-01-13T02:49:37.717Z,11.57
2023-01-13T02:52:11.637Z,8.40
2023-01-13T02:54:43.426Z,8.73
2023-01-13T02:57:13.340Z,13.37
2023-01-13T02:59:42.579Z,12.50
2023-01-13T03:02:17.427Z,10.53
2023-01-13T03:04:52.100Z,17.63
2023-01-13T03:07:47.066Z,11.00
2023-01-13T03:10:26.588Z,12.50
2023-01-13T03:13:03.283Z,11.52
2023-01-13T03:15:41.570Z,11.57
2023-01-13T03:18:20.697Z,13.83
2023-01-13T03:20:58.320Z,8.80
2023-01-13T03:23:32.675Z,10.63
2023-01-13T03:26:06.025Z,13.07
2023-01-13T03:28:38.077Z,15.43
2023-01-13T03:31:10.618Z,11.53
2023-01-13T03:33:46.286Z,12.43
2023-01-13T03:36:18.275Z,12.60
2023-01-13T03:38:51.806Z,10.13
2023-01-13T03:41:24.539Z,8.23
2023-01-13T03:44:15.991Z,14.83
2023-01-13T03:46:50.937Z,8.37
2023-01-13T03:49:23.346Z,11.87
2023-01-13T03:51:57.176Z,13.77
2023-01-13T03:54:29.019Z,12.97
2023-01-13T03:57:00.420Z,11.87
2023-01-13T03:59:34.393Z,12.30
2023-01-13T04:02:06.548Z,11.20
2023-01-13T04:04:41.986Z,15.07
2023-01-13T04:07:16.938Z,11.53
2023-01-13T04:09:51.209Z,12.23
2023-01-13T04:12:26.079Z,12.90
2023-01-13T04:14:55.295Z,12.17
2023-01-13T04:17:24.687Z,17.57
2023-01-13T04:19:53.804Z,10.30
2023-01-13T04:22:21.855Z,12.53
2023-01-13T04:24:49.627Z,10.60
2023-01-13T04:27:17.385Z,14.30
2023-01-13T04:29:45.367Z,14.97
2023-01-13T04:32:13.118Z,58.80
2023-01-13T04:34:40.886Z,16.70
2023-01-13T04:37:10.146Z,14.70
2023-01-13T04:39:38.294Z,11.37
2023-01-13T04:42:06.129Z,16.87
2023-01-13T04:44:35.531Z,10.73
2023-01-13T04:47:03.629Z,11.83
2023-01-13T04:49:31.681Z,10.67
2023-01-13T04:51:59.736Z,13.50
2023-01-13T04:54:28.801Z,11.47
2023-01-13T04:56:56.541Z,9.07
2023-01-13T04:59:24.589Z,10.87
2023-01-13T05:01:52.474Z,15.80
2023-01-13T05:04:20.319Z,7.00
2023-01-13T05:06:48.477Z,10.03
2023-01-13T05:09:16.357Z,14.80
2023-01-13T05:12:05.053Z,9.43
2023-01-13T05:14:50.573Z,10.80
2023-01-13T05:17:21.665Z,12.53
2023-01-13T05:19:49.368Z,15.77
2023-01-13T05:22:34.812Z,10.67
2023-01-13T05:25:20.002Z,12.17
2023-01-13T05:27:49.479Z,8.17
2023-01-13T05:30:18.259Z,8.05
2023-01-13T05:32:46.185Z,11.00
2023-01-13T05:35:16.085Z,10.30
2023-01-13T05:37:44.302Z,17.00
2023-01-13T05:40:31.426Z,10.57
2023-01-13T05:43:21.186Z,9.70
2023-01-13T05:45:50.751Z,10.88
2023-01-13T05:48:20.523Z,12.63
2023-01-13T05:50:49.254Z,8.77
2023-01-13T05:53:18.391Z,16.77
2023-01-13T05:55:46.878Z,7.57
2023-01-13T05:58:17.340Z,10.07
2023-01-13T06:03:13.547Z,10.83
2023-01-13T06:05:41.444Z,16.40
2023-01-13T06:08:10.306Z,11.30
2023-01-13T06:10:38.450Z,11.30
2023-01-13T06:13:06.437Z,15.40
2023-01-13T06:15:35.981Z,18.40
2023-01-13T06:18:04.651Z,12.75
2023-01-13T06:20:32.770Z,11.13
2023-01-13T06:23:01.542Z,11.43
2023-01-13T06:25:40.849Z,15.60
2023-01-13T06:28:08.731Z,19.33
2023-01-13T06:30:40.946Z,20.53
2023-01-13T06:33:13.185Z,23.53
2023-01-13T06:35:44.850Z,23.33
2023-01-13T06:38:17.079Z,27.00
2023-01-13T06:40:45.264Z,26.10
2023-01-13T06:43:17.976Z,22.53
2023-01-13T06:45:50.592Z,25.73
2023-01-13T06:48:20.014Z,26.07
2023-01-13T06:50:47.892Z,22.00
2023-01-13T06:53:15.706Z,26.33
2023-01-13T06:55:43.699Z,23.60
2023-01-13T06:58:11.573Z,21.77
2023-01-13T07:00:39.679Z,18.07
2023-01-13T07:03:14.613Z,16.97
2023-01-13T07:05:44.129Z,19.73
2023-01-13T07:08:12.048Z,15.85
2023-01-13T07:10:40.239Z,14.87
2023-01-13T07:13:25.358Z,16.63
2023-01-13T07:15:58.053Z,16.17
2023-01-13T07:18:28.522Z,14.53
2023-01-13T07:20:58.005Z,17.60
2023-01-13T07:23:26.769Z,17.53
2023-01-13T07:25:56.698Z,16.73
2023-01-13T07:28:25.122Z,16.25
2023-01-13T07:30:53.169Z,14.67
2023-01-13T07:33:21.427Z,13.83
2023-01-13T07:35:57.823Z,15.27
2023-01-13T07:38:25.791Z,12.60
2023-01-13T07:40:53.686Z,14.63
2023-01-13T07:43:33.225Z,13.07
2023-01-13T07:46:02.945Z,13.32
2023-01-13T07:48:31.896Z,13.68
2023-01-13T07:51:04.345Z,11.97
2023-01-13T07:53:32.499Z,13.77
2023-01-13T07:56:01.250Z,10.70
2023-01-13T07:58:29.947Z,17.23
2023-01-13T08:00:58.543Z,10.80
2023-01-13T08:03:28.019Z,7.90
2023-01-13T08:05:55.804Z,10.37
2023-01-13T08:08:25.023Z,9.90
2023-01-13T08:10:52.760Z,12.47
2023-01-13T08:13:21.565Z,7.27
2023-01-13T08:15:51.116Z,12.00
2023-01-13T08:18:22.111Z,12.45
2023-01-13T08:20:52.337Z,8.20
2023-01-13T08:23:20.676Z,12.73
2023-01-13T08:25:50.477Z,12.30
2023-01-13T08:28:18.739Z,9.00
2023-01-13T08:30:46.661Z,10.03
2023-01-13T08:33:14.570Z,11.67
2023-01-13T08:35:43.115Z,8.30
2023-01-13T08:38:11.136Z,11.47
2023-01-13T08:40:40.757Z,10.80
2023-01-13T08:43:09.883Z,8.73
2023-01-13T08:45:37.724Z,7.93
2023-01-13T08:48:06.422Z,11.23
2023-01-13T08:50:34.172Z,11.63
2023-01-13T08:53:02.175Z,11.13
2023-01-13T08:55:30.024Z,9.80
2023-01-13T08:58:14.280Z,8.87
2023-01-13T09:00:45.338Z,8.27
2023-01-13T09:03:13.049Z,11.40
2023-01-13T09:05:40.769Z,10.97
2023-01-13T09:08:08.883Z,10.93
2023-01-13T09:10:37.020Z,12.57
2023-01-13T09:13:12.850Z,8.10
2023-01-13T09:15:42.553Z,8.03
2023-01-13T09:18:11.953Z,12.00
2023-01-13T09:20:40.480Z,13.13
2023-01-13T09:23:10.749Z,10.63
2023-01-13T09:25:39.475Z,5.97
2023-01-13T09:28:08.796Z,7.33
2023-01-13T09:30:38.223Z,8.27
2023-01-13T09:33:23.403Z,7.37
2023-01-13T09:35:52.653Z,5.07
2023-01-13T09:38:20.511Z,6.37
2023-01-13T09:40:50.204Z,6.37
2023-01-13T09:43:41.437Z,5.70
2023-01-13T09:46:31.160Z,6.87
2023-01-13T09:49:00.099Z,4.07
2023-01-13T09:51:35.336Z,5.90
2023-01-13T09:54:09.997Z,3.40
2023-01-13T09:56:38.025Z,4.47
2023-01-13T09:59:06.150Z,5.90
2023-01-13T10:01:40.156Z,4.37
2023-01-13T10:04:12.689Z,2.70
2023-01-13T10:06:44.620Z,6.70
2023-01-13T10:09:16.221Z,2.80
2023-01-13T10:12:04.944Z,3.90
2023-01-13T10:14:38.863Z,3.00
2023-01-13T10:17:13.517Z,2.10
2023-01-13T10:19:46.246Z,2.20
2023-01-13T10:22:27.085Z,2.17
2023-01-13T10:25:20.297Z,1.60
2023-01-13T10:27:50.276Z,2.27
2023-01-13T10:30:31.351Z,1.30
2023-01-13T10:33:01.969Z,3.57
2023-01-13T10:38:20.568Z,4.80
2023-01-13T10:40:50.393Z,5.10
2023-01-13T10:43:18.248Z,4.35
2023-01-13T10:45:57.036Z,1.77
2023-01-13T10:48:32.411Z,2.20
2023-01-13T10:51:00.331Z,3.27
2023-01-13T10:53:31.055Z,8.17
2023-01-13T10:56:03.969Z,3.03
2023-01-13T10:58:31.791Z,6.17
2023-01-13T11:01:01.901Z,3.67
2023-01-13T11:03:40.729Z,20.98
2023-01-13T11:06:09.566Z,5.07
2023-01-13T11:08:46.329Z,14.17
2023-01-13T11:11:34.303Z,12.57
2023-01-13T11:14:23.701Z,5.93
2023-01-13T11:16:56.719Z,9.87
2023-01-13T11:19:27.862Z,8.50
2023-01-13T11:22:02.015Z,10.20
2023-01-13T11:24:37.319Z,7.13
2023-01-13T11:27:11.298Z,7.23
2023-01-13T11:29:44.529Z,7.27
2023-01-13T11:32:15.005Z,6.50
2023-01-13T11:37:18.528Z,6.10
2023-01-13T11:39:55.568Z,12.30
2023-01-13T11:42:27.676Z,10.50
2023-01-13T11:45:04.406Z,6.27
2023-01-13T11:47:33.627Z,5.37
2023-01-13T11:50:02.554Z,6.10
2023-01-13T11:52:48.576Z,7.70
2023-01-13T11:55:33.428Z,4.03
2023-01-13T11:58:45.636Z,6.33
2023-01-13T12:01:25.582Z,5.60
2023-01-13T12:04:06.930Z,6.40
2023-01-13T12:06:38.428Z,7.53
2023-01-13T12:09:25.092Z,6.70
2023-01-13T12:12:22.910Z,7.87
2023-01-13T12:15:23.614Z,5.03
2023-01-13T12:20:35.788Z,7.80
2023-01-13T12:23:08.608Z,5.57
2023-01-13T12:25:41.648Z,4.23
2023-01-13T12:28:16.232Z,7.40
2023-01-13T12:30:50.855Z,7.03
2023-01-13T12:33:29.310Z,5.60
2023-01-13T12:36:02.641Z,5.07
2023-01-13T12:38:37.425Z,7.13
2023-01-13T12:41:16.850Z,8.33
2023-01-13T12:44:07.391Z,7.93
2023-01-13T12:49:08.323Z,5.37
2023-01-13T12:51:38.306Z,4.87
2023-01-13T12:54:54.820Z,3.53
2023-01-13T12:57:25.380Z,8.33
2023-01-13T13:00:24.660Z,11.40
2023-01-13T13:03:20.942Z,6.73
2023-01-13T13:05:58.787Z,6.20
2023-01-13T13:08:43.277Z,7.20
2023-01-13T13:12:03.382Z,7.20
2023-01-13T13:15:07.035Z,9.77
2023-01-13T13:17:44.406Z,5.70
2023-01-13T13:20:53.967Z,13.33
2023-01-13T13:23:30.617Z,7.30
2023-01-13T13:26:04.927Z,10.87
2023-01-13T13:28:38.327Z,10.73
2023-01-13T13:31:37.440Z,14.90
2023-01-13T13:34:21.595Z,15.03
2023-01-13T13:37:08.761Z,10.73
2023-01-13T13:39:51.390Z,14.33
2023-01-13T13:42:52.242Z,12.40
2023-01-13T13:45:40.122Z,14.10
2023-01-13T13:48:25.053Z,12.53
2023-01-13T13:50:58.125Z,10.57
2023-01-13T13:53:29.876Z,8.03
2023-01-13T13:55:59.801Z,13.63
2023-01-13T13:58:29.829Z,13.98
2023-01-13T14:01:02.156Z,9.77
2023-01-13T14:03:33.562Z,18.97
2023-01-13T14:06:04.365Z,22.57
2023-01-13T14:08:35.570Z,17.70
2023-01-13T14:11:03.347Z,17.83
2023-01-13T14:13:32.788Z,18.03
2023-01-13T14:16:02.574Z,16.07
2023-01-13T14:18:33.429Z,20.60
2023-01-13T14:21:14.998Z,15.00
2023-01-13T14:23:52.388Z,14.33
2023-01-13T14:26:25.832Z,18.80
2023-01-13T14:28:54.383Z,16.07
2023-01-13T14:31:23.695Z,13.37
2023-01-13T14:33:53.590Z,19.37
2023-01-13T14:36:24.712Z,14.88
2023-01-13T14:39:27.561Z,18.53
2023-01-13T14:41:55.503Z,20.17
2023-01-13T14:44:27.409Z,15.67
2023-01-13T14:46:57.421Z,18.60
2023-01-13T14:49:30.131Z,19.88
2023-01-13T14:52:08.249Z,20.60
2023-01-13T14:54:43.842Z,23.57
2023-01-13T14:57:17.080Z,19.83
2023-01-13T14:59:51.649Z,14.47
2023-01-13T15:02:47.903Z,13.33
2023-01-13T15:05:31.855Z,23.87
2023-01-13T15:08:04.990Z,14.43
2023-01-13T15:10:38.094Z,21.33
2023-01-13T15:13:08.252Z,37.47
2023-01-13T15:15:37.505Z,22.67
2023-01-13T15:18:13.941Z,21.53
2023-01-13T15:20:43.025Z,20.27
2023-01-13T15:23:12.673Z,30.03
2023-01-13T15:25:42.855Z,18.77
2023-01-13T15:28:17.359Z,24.33
2023-01-13T15:30:45.604Z,29.83
2023-01-13T15:33:15.396Z,17.93
2023-01-13T15:35:45.827Z,26.38
2023-01-13T15:38:16.950Z,24.73
2023-01-13T15:40:44.735Z,29.00
2023-01-13T15:43:32.870Z,27.17
2023-01-13T15:46:33.340Z,31.30
2023-01-13T15:49:10.095Z,26.92
2023-01-13T15:51:38.883Z,24.17
2023-01-13T15:54:08.286Z,26.00
2023-01-13T15:56:37.833Z,37.43
2023-01-13T15:59:06.341Z,25.60
2023-01-13T16:01:34.258Z,21.70
2023-01-13T16:04:02.170Z,45.37
2023-01-13T16:06:33.226Z,31.37
2023-01-13T16:09:02.938Z,27.20
2023-01-13T16:11:33.190Z,33.83
2023-01-13T16:14:01.033Z,33.15
2023-01-13T16:16:29.932Z,39.97
2023-01-13T16:19:03.922Z,31.20
2023-01-13T16:21:31.757Z,31.53
2023-01-13T16:23:59.518Z,31.60
2023-01-13T16:26:30.236Z,32.20
2023-01-13T16:28:59.879Z,32.43
2023-01-13T16:31:32.021Z,41.85
2023-01-13T16:34:01.146Z,33.03
2023-01-13T16:36:30.544Z,29.80
2023-01-13T16:38:58.392Z,34.50
2023-01-13T16:41:26.398Z,34.67
2023-01-13T16:43:54.399Z,42.87
2023-01-13T16:46:26.055Z,35.53
2023-01-13T16:48:54.895Z,33.53
2023-01-13T16:51:24.036Z,36.93
2023-01-13T16:53:52.302Z,36.10
2023-01-13T16:56:26.167Z,37.00
2023-01-13T16:58:55.633Z,30.17
2023-01-13T17:01:27.443Z,37.37
2023-01-13T17:03:56.582Z,30.27
2023-01-13T17:06:28.333Z,35.93
2023-01-13T17:09:00.844Z,42.60
2023-01-13T17:11:28.610Z,42.60
2023-01-13T17:13:56.384Z,37.57
2023-01-13T17:16:26.372Z,33.83
2023-01-13T17:18:54.848Z,38.75
2023-01-13T17:21:22.650Z,40.63
2023-01-13T17:23:50.665Z,38.67
2023-01-13T17:26:37.193Z,40.07
2023-01-13T17:29:06.896Z,43.93
2023-01-13T17:31:36.826Z,34.90
2023-01-13T17:34:05.673Z,43.05
2023-01-13T17:36:33.821Z,28.17
2023-01-13T17:39:01.715Z,39.93
2023-01-13T17:41:29.616Z,33.63
2023-01-13T17:43:57.654Z,35.33
2023-01-13T17:46:25.549Z,34.40
2023-01-13T17:48:54.700Z,35.43
2023-01-13T17:51:25.219Z,38.50
2023-01-13T17:53:54.255Z,39.20
2023-01-13T17:56:22.142Z,35.50
2023-01-13T17:58:50.072Z,30.10
2023-01-13T18:01:19.718Z,33.97
2023-01-13T18:03:47.643Z,37.25
2023-01-13T18:06:19.275Z,37.40
2023-01-13T18:08:48.321Z,49.57
2023-01-13T18:11:18.756Z,40.17
2023-01-13T18:16:17.648Z,44.80
2023-01-13T18:18:48.191Z,55.70
2023-01-13T18:21:37.548Z,40.63
2023-01-13T18:24:24.345Z,53.30
2023-01-13T18:27:09.432Z,43.40
2023-01-13T18:29:37.295Z,35.17
2023-01-13T18:32:07.676Z,32.60
2023-01-13T18:34:35.754Z,51.90
2023-01-13T18:37:06.228Z,50.77
2023-01-13T18:42:19.975Z,66.70
2023-01-13T18:44:47.873Z,46.97
2023-01-13T18:47:15.575Z,60.73
2023-01-13T18:49:43.406Z,47.73
2023-01-13T18:52:13.876Z,37.97
2023-01-13T18:57:10.434Z,34.33
2023-01-13T18:59:38.235Z,38.03
2023-01-13T19:02:09.484Z,34.60
2023-01-13T19:04:37.378Z,35.63
2023-01-13T19:07:06.452Z,33.23
2023-01-13T19:09:35.551Z,35.50
2023-01-13T19:12:06.226Z,40.67
2023-01-13T19:14:38.350Z,41.87
2023-01-13T19:17:09.452Z,42.20
2023-01-13T19:19:40.929Z,49.77
2023-01-13T19:22:09.319Z,49.57
2023-01-13T19:24:41.918Z,61.00
2023-01-13T19:27:09.831Z,40.13
2023-01-13T19:29:37.838Z,49.77
2023-01-13T19:32:15.761Z,47.33
2023-01-13T19:34:46.775Z,44.72
2023-01-13T19:37:14.940Z,43.58
2023-01-13T19:39:44.244Z,41.43
2023-01-13T19:42:29.555Z,47.03
2023-01-13T19:45:14.811Z,48.20
2023-01-13T19:47:43.986Z,51.23
2023-01-13T19:50:12.684Z,49.27
2023-01-13T19:52:41.240Z,39.60
2023-01-13T19:55:11.825Z,36.07
2023-01-13T19:57:40.071Z,42.43
2023-01-13T20:00:10.802Z,47.93
2023-01-13T20:02:38.909Z,36.13
2023-01-13T20:05:08.134Z,31.17
2023-01-13T20:07:36.217Z,33.43
2023-01-13T20:10:04.835Z,37.53
2023-01-13T20:12:34.105Z,41.07
2023-01-13T20:15:01.971Z,32.67
2023-01-13T20:17:30.779Z,31.17
2023-01-13T20:19:58.987Z,34.87
2023-01-13T20:22:26.966Z,30.83
2023-01-13T20:24:55.942Z,39.57
2023-01-13T20:27:24.823Z,26.70
2023-01-13T20:29:54.206Z,35.03
2023-01-13T20:32:22.168Z,37.23
2023-01-13T20:34:49.993Z,32.30
2023-01-13T20:37:17.813Z,37.43
2023-01-13T20:39:45.994Z,26.57
2023-01-13T20:42:40.009Z,36.43
2023-01-13T20:45:10.506Z,29.13
2023-01-13T20:50:08.130Z,27.30
2023-01-13T20:52:36.919Z,30.83
2023-01-13T20:55:05.790Z,30.47
2023-01-13T20:57:33.641Z,29.73
2023-01-13T21:00:02.284Z,28.23
2023-01-13T21:02:31.730Z,26.93
2023-01-13T21:04:59.709Z,25.57
2023-01-13T21:07:28.271Z,30.47
2023-01-13T21:09:57.373Z,27.83
2023-01-13T21:12:42.533Z,34.13
2023-01-13T21:15:19.963Z,28.00
2023-01-13T21:18:08.943Z,29.17
2023-01-13T21:20:39.240Z,25.30
2023-01-13T21:23:07.724Z,24.55
2023-01-13T21:25:37.298Z,32.50
2023-01-13T21:28:07.732Z,26.70
2023-01-13T21:30:36.622Z,29.17
2023-01-13T21:33:06.479Z,25.97
2023-01-13T21:35:38.071Z,24.50
2023-01-13T21:38:05.830Z,26.57
2023-01-13T21:40:33.816Z,22.53
2023-01-13T21:43:19.242Z,24.73
2023-01-13T21:46:05.635Z,27.63
2023-01-13T21:48:34.922Z,23.47
2023-01-13T21:51:02.706Z,23.53
2023-01-13T21:53:30.600Z,36.03
2023-01-13T21:55:58.543Z,23.73
2023-01-13T21:58:26.284Z,30.17
2023-01-13T22:00:54.316Z,25.00
2023-01-13T22:03:22.288Z,27.47
2023-01-13T22:05:56.817Z,26.30
2023-01-13T22:08:35.692Z,29.73
2023-01-13T22:11:03.675Z,34.27
2023-01-13T22:13:48.928Z,27.40
2023-01-13T22:16:16.987Z,22.67
2023-01-13T22:18:44.861Z,25.17
2023-01-13T22:21:13.970Z,29.20
2023-01-13T22:23:41.962Z,26.33
2023-01-13T22:26:10.023Z,24.73
2023-01-13T22:28:42.955Z,29.03
2023-01-13T22:31:12.140Z,34.57
2023-01-13T22:33:40.835Z,27.97
2023-01-13T22:36:09.850Z,27.97
2023-01-13T22:38:39.099Z,25.70
2023-01-13T22:41:09.118Z,23.57
2023-01-13T22:43:38.014Z,31.08
2023-01-13T22:46:07.361Z,29.80
2023-01-13T22:48:35.250Z,27.77
2023-01-13T22:51:06.270Z,25.87
2023-01-13T22:53:34.381Z,29.90
2023-01-13T22:56:03.950Z,25.23
2023-01-13T22:58:32.082Z,27.75
2023-01-13T23:01:08.959Z,27.33
2023-01-13T23:03:36.915Z,28.67
2023-01-13T23:06:05.286Z,25.57
2023-01-13T23:08:34.221Z,26.60
2023-01-13T23:11:05.036Z,27.80
2023-01-13T23:13:33.289Z,27.03
2023-01-13T23:16:03.381Z,29.47
2023-01-13T23:18:31.405Z,31.08
2023-01-13T23:21:03.966Z,25.80
2023-01-13T23:23:32.199Z,32.60
2023-01-13T23:25:59.925Z,28.40
2023-01-13T23:28:29.234Z,27.23
2023-01-13T23:30:57.146Z,28.30
2023-01-13T23:33:24.899Z,25.73
2023-01-13T23:36:00.044Z,29.33
2023-01-13T23:38:28.968Z,24.00
2023-01-13T23:40:57.143Z,26.90
2023-01-13T23:43:27.056Z,22.37
2023-01-13T23:46:02.401Z,25.40
2023-01-13T23:48:30.892Z,25.83
2023-01-13T23:50:59.426Z,23.40
2023-01-13T23:53:33.454Z,22.23
2023-01-13T23:56:02.241Z,24.77
2023-01-13T23:58:30.906Z,21.60
